sensor_id;sensor_type;location;lat;lon;timestamp;pressure;altitude;pressure_sealevel;temperature;humidity
76201;BME280;64981;52.930;9.266;2023-06-22T00:00:29;101658.50;;;18.57;65.97
76201;BME280;64981;52.930;9.266;2023-06-22T00:02:55;101646.22;;;18.42;66.36
76201;BME280;64981;52.930;9.266;2023-06-22T00:05:20;101648.59;;;18.37;66.27
76201;BME280;64981;52.930;9.266;2023-06-22T00:07:46;101654.34;;;18.34;66.15
76201;BME280;64981;52.930;9.266;2023-06-22T00:10:12;101654.84;;;18.22;66.47
76201;BME280;64981;52.930;9.266;2023-06-22T00:12:37;101653.47;;;18.26;66.52
76201;BME280;64981;52.930;9.266;2023-06-22T00:15:03;101652.88;;;18.10;66.77
76201;BME280;64981;52.930;9.266;2023-06-22T00:17:29;101649.75;;;18.06;67.07
76201;BME280;64981;52.930;9.266;2023-06-22T00:19:54;101650.13;;;18.03;67.32
76201;BME280;64981;52.930;9.266;2023-06-22T00:22:21;101657.94;;;18.05;67.06
76201;BME280;64981;52.930;9.266;2023-06-22T00:24:55;101658.59;;;18.07;67.16
76201;BME280;64981;52.930;9.266;2023-06-22T00:27:21;101654.47;;;18.04;66.77
76201;BME280;64981;52.930;9.266;2023-06-22T00:29:46;101654.63;;;18.03;66.98
76201;BME280;64981;52.930;9.266;2023-06-22T00:32:12;101647.53;;;17.95;67.22
76201;BME280;64981;52.930;9.266;2023-06-22T00:34:38;101648.25;;;17.89;67.62
76201;BME280;64981;52.930;9.266;2023-06-22T00:37:04;101661.19;;;17.86;67.74
76201;BME280;64981;52.930;9.266;2023-06-22T00:39:30;101657.97;;;17.90;67.51
76201;BME280;64981;52.930;9.266;2023-06-22T00:41:56;101657.50;;;17.87;67.32
76201;BME280;64981;52.930;9.266;2023-06-22T00:44:22;101658.69;;;17.84;67.02
76201;BME280;64981;52.930;9.266;2023-06-22T00:46:47;101664.31;;;17.89;66.76
76201;BME280;64981;52.930;9.266;2023-06-22T00:49:13;101666.25;;;17.81;67.32
76201;BME280;64981;52.930;9.266;2023-06-22T00:51:39;101669.66;;;17.89;67.27
76201;BME280;64981;52.930;9.266;2023-06-22T00:54:11;101656.66;;;17.86;67.51
76201;BME280;64981;52.930;9.266;2023-06-22T00:56:39;101661.84;;;17.88;67.60
76201;BME280;64981;52.930;9.266;2023-06-22T00:59:06;101653.81;;;17.88;67.55
76201;BME280;64981;52.930;9.266;2023-06-22T01:01:31;101652.25;;;17.93;67.24
76201;BME280;64981;52.930;9.266;2023-06-22T01:03:57;101666.84;;;17.76;68.30
76201;BME280;64981;52.930;9.266;2023-06-22T01:06:32;101657.44;;;17.65;68.65
76201;BME280;64981;52.930;9.266;2023-06-22T01:09:15;101662.66;;;17.73;67.86
76201;BME280;64981;52.930;9.266;2023-06-22T01:11:53;101640.13;;;17.61;67.92
76201;BME280;64981;52.930;9.266;2023-06-22T01:14:30;101666.19;;;17.59;68.66
76201;BME280;64981;52.930;9.266;2023-06-22T01:17:01;101656.50;;;17.58;68.71
76201;BME280;64981;52.930;9.266;2023-06-22T01:19:41;101656.44;;;17.52;69.03
76201;BME280;64981;52.930;9.266;2023-06-22T01:22:10;101651.28;;;17.50;69.12
76201;BME280;64981;52.930;9.266;2023-06-22T01:24:55;101653.38;;;17.55;69.16
76201;BME280;64981;52.930;9.266;2023-06-22T01:27:58;101653.69;;;17.60;68.67
76201;BME280;64981;52.930;9.266;2023-06-22T01:30:28;101650.97;;;17.74;68.00
76201;BME280;64981;52.930;9.266;2023-06-22T01:32:57;101639.28;;;17.61;68.34
76201;BME280;64981;52.930;9.266;2023-06-22T01:35:25;101628.34;;;17.56;68.16
76201;BME280;64981;52.930;9.266;2023-06-22T01:37:50;101634.91;;;17.39;69.28
76201;BME280;64981;52.930;9.266;2023-06-22T01:40:18;101637.47;;;17.32;69.69
76201;BME280;64981;52.930;9.266;2023-06-22T01:42:45;101638.69;;;17.44;68.89
76201;BME280;64981;52.930;9.266;2023-06-22T01:45:12;101616.72;;;17.49;68.88
76201;BME280;64981;52.930;9.266;2023-06-22T01:47:39;101617.75;;;17.48;68.91
76201;BME280;64981;52.930;9.266;2023-06-22T01:50:05;101619.88;;;17.52;68.64
76201;BME280;64981;52.930;9.266;2023-06-22T01:52:31;101620.94;;;17.58;68.49
76201;BME280;64981;52.930;9.266;2023-06-22T01:55:00;101614.88;;;17.49;69.04
76201;BME280;64981;52.930;9.266;2023-06-22T01:57:27;101634.34;;;17.43;69.31
76201;BME280;64981;52.930;9.266;2023-06-22T02:00:01;101628.25;;;17.49;69.19
76201;BME280;64981;52.930;9.266;2023-06-22T02:02:52;101634.06;;;17.53;68.93
76201;BME280;64981;52.930;9.266;2023-06-22T02:05:19;101634.97;;;17.60;68.74
76201;BME280;64981;52.930;9.266;2023-06-22T02:07:52;101624.84;;;17.55;68.88
76201;BME280;64981;52.930;9.266;2023-06-22T02:10:24;101640.13;;;17.47;69.74
76201;BME280;64981;52.930;9.266;2023-06-22T02:12:51;101640.59;;;17.50;69.33
76201;BME280;64981;52.930;9.266;2023-06-22T02:15:18;101640.69;;;17.42;69.79
76201;BME280;64981;52.930;9.266;2023-06-22T02:17:44;101644.75;;;17.38;69.91
76201;BME280;64981;52.930;9.266;2023-06-22T02:20:13;101647.22;;;17.25;70.27
76201;BME280;64981;52.930;9.266;2023-06-22T02:22:39;101633.63;;;17.20;70.47
76201;BME280;64981;52.930;9.266;2023-06-22T02:25:05;101636.81;;;17.30;70.03
76201;BME280;64981;52.930;9.266;2023-06-22T02:27:30;101627.53;;;17.41;69.74
76201;BME280;64981;52.930;9.266;2023-06-22T02:29:57;101629.81;;;17.44;69.63
76201;BME280;64981;52.930;9.266;2023-06-22T02:32:23;101641.50;;;17.43;69.96
76201;BME280;64981;52.930;9.266;2023-06-22T02:34:48;101635.53;;;17.41;70.07
76201;BME280;64981;52.930;9.266;2023-06-22T02:37:14;101634.81;;;17.32;70.49
76201;BME280;64981;52.930;9.266;2023-06-22T02:39:40;101638.84;;;17.28;70.55
76201;BME280;64981;52.930;9.266;2023-06-22T02:42:06;101634.78;;;17.17;70.99
76201;BME280;64981;52.930;9.266;2023-06-22T02:44:32;101625.88;;;17.25;70.66
76201;BME280;64981;52.930;9.266;2023-06-22T02:46:58;101621.63;;;17.16;70.56
76201;BME280;64981;52.930;9.266;2023-06-22T02:49:23;101633.97;;;17.32;70.15
76201;BME280;64981;52.930;9.266;2023-06-22T02:51:49;101630.47;;;17.31;70.28
76201;BME280;64981;52.930;9.266;2023-06-22T02:54:15;101623.66;;;17.29;70.22
76201;BME280;64981;52.930;9.266;2023-06-22T02:56:41;101632.03;;;17.26;70.51
76201;BME280;64981;52.930;9.266;2023-06-22T02:59:10;101628.63;;;17.32;70.52
76201;BME280;64981;52.930;9.266;2023-06-22T03:01:36;101626.72;;;17.26;70.64
76201;BME280;64981;52.930;9.266;2023-06-22T03:04:06;101630.00;;;17.13;71.12
76201;BME280;64981;52.930;9.266;2023-06-22T03:06:32;101637.66;;;17.16;70.91
76201;BME280;64981;52.930;9.266;2023-06-22T03:09:01;101645.88;;;17.29;70.82
76201;BME280;64981;52.930;9.266;2023-06-22T03:11:29;101641.53;;;17.28;70.30
76201;BME280;64981;52.930;9.266;2023-06-22T03:13:56;101641.25;;;17.23;70.91
76201;BME280;64981;52.930;9.266;2023-06-22T03:16:21;101645.41;;;17.26;71.17
76201;BME280;64981;52.930;9.266;2023-06-22T03:18:47;101641.25;;;17.23;70.90
76201;BME280;64981;52.930;9.266;2023-06-22T03:21:12;101640.88;;;17.26;70.86
76201;BME280;64981;52.930;9.266;2023-06-22T03:23:41;101647.31;;;17.32;70.51
76201;BME280;64981;52.930;9.266;2023-06-22T03:26:07;101651.19;;;17.44;70.19
76201;BME280;64981;52.930;9.266;2023-06-22T03:28:32;101646.38;;;17.39;70.30
76201;BME280;64981;52.930;9.266;2023-06-22T03:30:58;101654.50;;;17.31;70.23
76201;BME280;64981;52.930;9.266;2023-06-22T03:33:24;101650.47;;;17.35;69.81
76201;BME280;64981;52.930;9.266;2023-06-22T03:35:49;101651.00;;;17.31;69.60
76201;BME280;64981;52.930;9.266;2023-06-22T03:38:16;101647.06;;;17.41;69.40
76201;BME280;64981;52.930;9.266;2023-06-22T03:40:43;101648.44;;;17.37;69.70
76201;BME280;64981;52.930;9.266;2023-06-22T03:43:08;101662.13;;;17.49;69.31
76201;BME280;64981;52.930;9.266;2023-06-22T03:45:34;101656.88;;;17.55;68.82
76201;BME280;64981;52.930;9.266;2023-06-22T03:48:00;101651.53;;;17.55;69.00
76201;BME280;64981;52.930;9.266;2023-06-22T03:50:26;101660.03;;;17.44;69.03
76201;BME280;64981;52.930;9.266;2023-06-22T03:52:52;101655.78;;;17.50;68.63
76201;BME280;64981;52.930;9.266;2023-06-22T03:55:19;101659.56;;;17.55;68.57
76201;BME280;64981;52.930;9.266;2023-06-22T03:57:45;101659.56;;;17.55;68.74
76201;BME280;64981;52.930;9.266;2023-06-22T04:00:11;101667.50;;;17.63;69.05
76201;BME280;64981;52.930;9.266;2023-06-22T04:02:37;101670.88;;;17.72;68.45
76201;BME280;64981;52.930;9.266;2023-06-22T04:05:03;101664.53;;;17.73;68.01
76201;BME280;64981;52.930;9.266;2023-06-22T04:07:28;101672.53;;;17.88;67.63
76201;BME280;64981;52.930;9.266;2023-06-22T04:09:54;101666.91;;;17.83;68.08
76201;BME280;64981;52.930;9.266;2023-06-22T04:12:20;101673.53;;;17.87;67.53
76201;BME280;64981;52.930;9.266;2023-06-22T04:14:45;101671.53;;;17.89;67.11
76201;BME280;64981;52.930;9.266;2023-06-22T04:17:11;101672.72;;;18.01;67.19
76201;BME280;64981;52.930;9.266;2023-06-22T04:19:39;101679.16;;;18.06;67.32
76201;BME280;64981;52.930;9.266;2023-06-22T04:22:05;101672.59;;;18.09;67.05
76201;BME280;64981;52.930;9.266;2023-06-22T04:24:33;101676.19;;;18.16;67.30
76201;BME280;64981;52.930;9.266;2023-06-22T04:26:59;101666.03;;;18.11;67.52
76201;BME280;64981;52.930;9.266;2023-06-22T04:29:29;101673.13;;;18.19;67.99
76201;BME280;64981;52.930;9.266;2023-06-22T04:31:56;101670.06;;;18.22;68.01
76201;BME280;64981;52.930;9.266;2023-06-22T04:34:25;101671.22;;;18.34;67.40
76201;BME280;64981;52.930;9.266;2023-06-22T04:36:51;101674.94;;;18.54;66.96
76201;BME280;64981;52.930;9.266;2023-06-22T04:39:17;101670.59;;;18.53;66.74
76201;BME280;64981;52.930;9.266;2023-06-22T04:41:44;101667.78;;;18.61;66.40
76201;BME280;64981;52.930;9.266;2023-06-22T04:44:12;101670.28;;;18.63;65.61
76201;BME280;64981;52.930;9.266;2023-06-22T04:46:38;101678.47;;;18.61;65.68
76201;BME280;64981;52.930;9.266;2023-06-22T04:49:06;101674.41;;;18.65;66.04
76201;BME280;64981;52.930;9.266;2023-06-22T04:51:38;101670.34;;;18.69;65.38
76201;BME280;64981;52.930;9.266;2023-06-22T04:54:06;101661.09;;;18.72;64.87
76201;BME280;64981;52.930;9.266;2023-06-22T04:56:32;101661.22;;;18.64;64.88
76201;BME280;64981;52.930;9.266;2023-06-22T04:59:01;101657.41;;;18.73;65.17
76201;BME280;64981;52.930;9.266;2023-06-22T05:01:26;101661.53;;;18.97;64.21
76201;BME280;64981;52.930;9.266;2023-06-22T05:03:53;101659.81;;;19.17;63.92
76201;BME280;64981;52.930;9.266;2023-06-22T05:06:24;101659.69;;;19.31;63.46
76201;BME280;64981;52.930;9.266;2023-06-22T05:08:53;101658.72;;;19.73;62.27
76201;BME280;64981;52.930;9.266;2023-06-22T05:11:29;101661.31;;;20.08;60.75
76201;BME280;64981;52.930;9.266;2023-06-22T05:13:55;101661.44;;;20.60;59.10
76201;BME280;64981;52.930;9.266;2023-06-22T05:16:21;101649.66;;;20.94;58.07
76201;BME280;64981;52.930;9.266;2023-06-22T05:18:52;101663.50;;;21.30;57.08
76201;BME280;64981;52.930;9.266;2023-06-22T05:21:27;101651.31;;;21.79;55.54
76201;BME280;64981;52.930;9.266;2023-06-22T05:23:54;101649.03;;;22.27;53.90
76201;BME280;64981;52.930;9.266;2023-06-22T05:26:22;101641.53;;;23.28;51.98
76201;BME280;64981;52.930;9.266;2023-06-22T05:28:48;101649.72;;;23.76;50.31
76201;BME280;64981;52.930;9.266;2023-06-22T05:31:14;101652.22;;;24.37;49.15
76201;BME280;64981;52.930;9.266;2023-06-22T05:33:41;101651.75;;;24.40;49.02
76201;BME280;64981;52.930;9.266;2023-06-22T05:36:07;101655.03;;;24.30;49.46
76201;BME280;64981;52.930;9.266;2023-06-22T05:38:33;101654.19;;;24.30;49.34
76201;BME280;64981;52.930;9.266;2023-06-22T05:40:59;101653.06;;;24.08;49.71
76201;BME280;64981;52.930;9.266;2023-06-22T05:43:24;101658.56;;;23.83;50.40
76201;BME280;64981;52.930;9.266;2023-06-22T05:45:50;101650.78;;;23.57;50.99
76201;BME280;64981;52.930;9.266;2023-06-22T05:48:15;101651.84;;;23.13;51.62
76201;BME280;64981;52.930;9.266;2023-06-22T05:50:42;101654.56;;;23.13;51.83
76201;BME280;64981;52.930;9.266;2023-06-22T05:53:08;101649.09;;;22.45;53.29
76201;BME280;64981;52.930;9.266;2023-06-22T05:55:33;101648.16;;;22.33;53.92
76201;BME280;64981;52.930;9.266;2023-06-22T05:57:59;101647.84;;;22.16;54.46
76201;BME280;64981;52.930;9.266;2023-06-22T06:00:25;101647.16;;;21.96;55.13
76201;BME280;64981;52.930;9.266;2023-06-22T06:02:52;101641.28;;;22.06;54.10
76201;BME280;64981;52.930;9.266;2023-06-22T06:05:18;101636.81;;;21.86;54.79
76201;BME280;64981;52.930;9.266;2023-06-22T06:07:45;101639.63;;;21.54;55.85
76201;BME280;64981;52.930;9.266;2023-06-22T06:10:12;101649.06;;;21.76;55.80
76201;BME280;64981;52.930;9.266;2023-06-22T06:12:38;101642.13;;;21.55;55.79
76201;BME280;64981;52.930;9.266;2023-06-22T06:15:04;101638.69;;;21.92;55.07
76201;BME280;64981;52.930;9.266;2023-06-22T06:17:30;101635.28;;;22.04;54.98
76201;BME280;64981;52.930;9.266;2023-06-22T06:19:56;101639.09;;;21.89;54.93
76201;BME280;64981;52.930;9.266;2023-06-22T06:22:22;101643.06;;;22.18;54.18
76201;BME280;64981;52.930;9.266;2023-06-22T06:24:49;101645.28;;;22.28;53.99
76201;BME280;64981;52.930;9.266;2023-06-22T06:27:15;101638.88;;;22.54;53.30
76201;BME280;64981;52.930;9.266;2023-06-22T06:29:43;101630.03;;;22.46;54.15
76201;BME280;64981;52.930;9.266;2023-06-22T06:32:11;101624.03;;;22.44;53.34
76201;BME280;64981;52.930;9.266;2023-06-22T06:34:36;101623.34;;;22.56;53.83
76201;BME280;64981;52.930;9.266;2023-06-22T06:37:02;101629.91;;;22.66;53.44
76201;BME280;64981;52.930;9.266;2023-06-22T06:39:28;101633.63;;;22.65;52.51
76201;BME280;64981;52.930;9.266;2023-06-22T06:41:54;101624.56;;;22.84;52.44
76201;BME280;64981;52.930;9.266;2023-06-22T06:44:19;101627.91;;;22.55;51.50
76201;BME280;64981;52.930;9.266;2023-06-22T06:46:45;101629.44;;;22.94;51.75
76201;BME280;64981;52.930;9.266;2023-06-22T06:49:10;101640.03;;;23.14;50.77
76201;BME280;64981;52.930;9.266;2023-06-22T06:51:36;101630.31;;;23.31;50.07
76201;BME280;64981;52.930;9.266;2023-06-22T06:54:02;101633.34;;;23.59;50.48
76201;BME280;64981;52.930;9.266;2023-06-22T06:56:28;101628.97;;;23.76;49.75
76201;BME280;64981;52.930;9.266;2023-06-22T06:58:55;101627.88;;;23.95;50.23
76201;BME280;64981;52.930;9.266;2023-06-22T07:01:21;101631.00;;;24.11;48.76
76201;BME280;64981;52.930;9.266;2023-06-22T07:03:46;101628.78;;;24.19;48.86
76201;BME280;64981;52.930;9.266;2023-06-22T07:06:13;101630.09;;;24.28;48.76
76201;BME280;64981;52.930;9.266;2023-06-22T07:08:39;101629.22;;;24.04;48.29
76201;BME280;64981;52.930;9.266;2023-06-22T07:11:05;101623.84;;;24.04;48.43
76201;BME280;64981;52.930;9.266;2023-06-22T07:13:31;101626.56;;;24.16;48.54
76201;BME280;64981;52.930;9.266;2023-06-22T07:15:56;101619.66;;;24.20;48.71
76201;BME280;64981;52.930;9.266;2023-06-22T07:18:23;101622.34;;;24.09;49.13
76201;BME280;64981;52.930;9.266;2023-06-22T07:20:48;101625.72;;;24.16;49.40
76201;BME280;64981;52.930;9.266;2023-06-22T07:23:14;101625.38;;;23.94;50.06
76201;BME280;64981;52.930;9.266;2023-06-22T07:25:39;101620.78;;;23.83;49.73
76201;BME280;64981;52.930;9.266;2023-06-22T07:28:06;101621.28;;;23.91;49.46
76201;BME280;64981;52.930;9.266;2023-06-22T07:30:33;101616.56;;;24.05;49.40
76201;BME280;64981;52.930;9.266;2023-06-22T07:33:00;101619.31;;;23.98;49.86
76201;BME280;64981;52.930;9.266;2023-06-22T07:35:32;101614.81;;;23.81;50.07
76201;BME280;64981;52.930;9.266;2023-06-22T07:37:58;101622.56;;;23.89;49.97
76201;BME280;64981;52.930;9.266;2023-06-22T07:40:24;101619.28;;;23.69;49.97
76201;BME280;64981;52.930;9.266;2023-06-22T07:42:49;101616.22;;;23.83;50.31
76201;BME280;64981;52.930;9.266;2023-06-22T07:45:17;101615.06;;;23.91;50.01
76201;BME280;64981;52.930;9.266;2023-06-22T07:47:42;101614.06;;;24.03;49.94
76201;BME280;64981;52.930;9.266;2023-06-22T07:50:08;101617.16;;;23.89;50.42
76201;BME280;64981;52.930;9.266;2023-06-22T07:52:34;101619.06;;;24.18;49.90
76201;BME280;64981;52.930;9.266;2023-06-22T07:55:01;101614.53;;;24.30;49.09
76201;BME280;64981;52.930;9.266;2023-06-22T07:57:28;101617.59;;;24.34;49.39
76201;BME280;64981;52.930;9.266;2023-06-22T08:00:00;101609.25;;;24.47;49.54
76201;BME280;64981;52.930;9.266;2023-06-22T08:02:27;101598.59;;;24.52;49.62
76201;BME280;64981;52.930;9.266;2023-06-22T08:04:52;101598.34;;;24.42;49.34
76201;BME280;64981;52.930;9.266;2023-06-22T08:07:18;101606.53;;;24.47;48.70
76201;BME280;64981;52.930;9.266;2023-06-22T08:09:47;101595.16;;;24.56;48.81
76201;BME280;64981;52.930;9.266;2023-06-22T08:12:13;101593.94;;;24.71;48.75
76201;BME280;64981;52.930;9.266;2023-06-22T08:14:39;101585.34;;;24.97;48.68
76201;BME280;64981;52.930;9.266;2023-06-22T08:17:05;101593.78;;;25.12;48.45
76201;BME280;64981;52.930;9.266;2023-06-22T08:19:30;101589.19;;;25.24;47.26
76201;BME280;64981;52.930;9.266;2023-06-22T08:21:56;101583.19;;;25.10;46.76
76201;BME280;64981;52.930;9.266;2023-06-22T08:24:23;101586.50;;;25.13;47.44
76201;BME280;64981;52.930;9.266;2023-06-22T08:26:51;101577.44;;;25.19;48.37
76201;BME280;64981;52.930;9.266;2023-06-22T08:29:17;101588.13;;;25.13;48.02
76201;BME280;64981;52.930;9.266;2023-06-22T08:31:43;101590.56;;;25.38;46.93
76201;BME280;64981;52.930;9.266;2023-06-22T08:34:08;101593.28;;;25.27;46.95
76201;BME280;64981;52.930;9.266;2023-06-22T08:36:34;101598.03;;;25.08;47.27
76201;BME280;64981;52.930;9.266;2023-06-22T08:39:06;101590.72;;;25.32;46.77
76201;BME280;64981;52.930;9.266;2023-06-22T08:41:32;101584.59;;;25.36;46.39
76201;BME280;64981;52.930;9.266;2023-06-22T08:43:58;101581.88;;;25.36;46.57
76201;BME280;64981;52.930;9.266;2023-06-22T08:46:23;101582.47;;;25.38;46.95
76201;BME280;64981;52.930;9.266;2023-06-22T08:48:56;101574.13;;;25.28;47.32
76201;BME280;64981;52.930;9.266;2023-06-22T08:51:23;101574.41;;;25.55;46.65
76201;BME280;64981;52.930;9.266;2023-06-22T08:53:49;101575.81;;;25.57;46.47
76201;BME280;64981;52.930;9.266;2023-06-22T08:56:14;101580.03;;;25.65;46.71
76201;BME280;64981;52.930;9.266;2023-06-22T08:58:40;101573.88;;;25.70;47.01
76201;BME280;64981;52.930;9.266;2023-06-22T09:01:05;101565.28;;;25.73;45.70
76201;BME280;64981;52.930;9.266;2023-06-22T09:03:32;101569.22;;;25.93;45.19
76201;BME280;64981;52.930;9.266;2023-06-22T09:05:58;101562.72;;;25.94;44.38
76201;BME280;64981;52.930;9.266;2023-06-22T09:08:24;101549.19;;;25.94;45.14
76201;BME280;64981;52.930;9.266;2023-06-22T09:10:50;101558.59;;;26.03;45.74
76201;BME280;64981;52.930;9.266;2023-06-22T09:13:15;101546.59;;;26.16;44.50
76201;BME280;64981;52.930;9.266;2023-06-22T09:15:41;101543.41;;;26.19;44.85
76201;BME280;64981;52.930;9.266;2023-06-22T09:18:10;101537.72;;;26.21;44.18
76201;BME280;64981;52.930;9.266;2023-06-22T09:20:35;101537.25;;;26.40;44.36
76201;BME280;64981;52.930;9.266;2023-06-22T09:23:01;101541.34;;;26.43;45.02
76201;BME280;64981;52.930;9.266;2023-06-22T09:25:27;101543.31;;;26.47;44.73
76201;BME280;64981;52.930;9.266;2023-06-22T09:27:53;101534.78;;;26.55;43.79
76201;BME280;64981;52.930;9.266;2023-06-22T09:30:18;101534.94;;;26.49;44.01
76201;BME280;64981;52.930;9.266;2023-06-22T09:32:44;101540.19;;;26.72;44.18
76201;BME280;64981;52.930;9.266;2023-06-22T09:35:10;101533.38;;;26.53;43.92
76201;BME280;64981;52.930;9.266;2023-06-22T09:37:38;101531.41;;;26.65;43.60
76201;BME280;64981;52.930;9.266;2023-06-22T09:40:04;101535.31;;;26.74;44.10
76201;BME280;64981;52.930;9.266;2023-06-22T09:42:34;101531.75;;;26.90;43.36
76201;BME280;64981;52.930;9.266;2023-06-22T09:44:59;101525.66;;;27.00;42.81
76201;BME280;64981;52.930;9.266;2023-06-22T09:47:27;101533.75;;;26.78;43.08
76201;BME280;64981;52.930;9.266;2023-06-22T09:49:53;101526.34;;;26.90;43.02
76201;BME280;64981;52.930;9.266;2023-06-22T09:52:21;101517.06;;;27.08;43.19
76201;BME280;64981;52.930;9.266;2023-06-22T09:54:47;101513.53;;;27.07;43.46
76201;BME280;64981;52.930;9.266;2023-06-22T09:57:13;101512.41;;;26.82;42.95
76201;BME280;64981;52.930;9.266;2023-06-22T09:59:38;101497.34;;;26.91;43.71
76201;BME280;64981;52.930;9.266;2023-06-22T10:02:06;101504.31;;;26.87;43.98
76201;BME280;64981;52.930;9.266;2023-06-22T10:04:33;101496.31;;;26.97;44.14
76201;BME280;64981;52.930;9.266;2023-06-22T10:06:59;101500.44;;;27.21;43.06
76201;BME280;64981;52.930;9.266;2023-06-22T10:09:25;101506.94;;;27.20;43.42
76201;BME280;64981;52.930;9.266;2023-06-22T10:11:51;101496.47;;;27.29;42.80
76201;BME280;64981;52.930;9.266;2023-06-22T10:14:16;101492.63;;;27.25;43.00
76201;BME280;64981;52.930;9.266;2023-06-22T10:16:42;101490.22;;;27.28;42.97
76201;BME280;64981;52.930;9.266;2023-06-22T10:19:08;101482.28;;;27.22;43.14
76201;BME280;64981;52.930;9.266;2023-06-22T10:21:33;101479.91;;;27.30;43.26
76201;BME280;64981;52.930;9.266;2023-06-22T10:24:01;101478.97;;;27.41;42.84
76201;BME280;64981;52.930;9.266;2023-06-22T10:26:33;101483.28;;;27.42;43.29
76201;BME280;64981;52.930;9.266;2023-06-22T10:28:59;101471.88;;;27.40;43.22
76201;BME280;64981;52.930;9.266;2023-06-22T10:31:25;101471.03;;;27.66;42.36
76201;BME280;64981;52.930;9.266;2023-06-22T10:33:50;101466.50;;;27.18;43.25
76201;BME280;64981;52.930;9.266;2023-06-22T10:36:16;101462.63;;;27.36;43.49
76201;BME280;64981;52.930;9.266;2023-06-22T10:38:42;101466.91;;;27.59;43.00
76201;BME280;64981;52.930;9.266;2023-06-22T10:41:07;101461.59;;;27.69;42.93
76201;BME280;64981;52.930;9.266;2023-06-22T10:43:33;101462.53;;;27.53;42.77
76201;BME280;64981;52.930;9.266;2023-06-22T10:45:58;101458.34;;;27.72;42.41
76201;BME280;64981;52.930;9.266;2023-06-22T10:48:24;101456.41;;;27.67;42.72
76201;BME280;64981;52.930;9.266;2023-06-22T10:50:49;101461.22;;;27.87;42.26
76201;BME280;64981;52.930;9.266;2023-06-22T10:53:15;101459.63;;;27.91;42.44
76201;BME280;64981;52.930;9.266;2023-06-22T10:55:41;101464.41;;;27.79;41.66
76201;BME280;64981;52.930;9.266;2023-06-22T10:58:06;101467.03;;;28.01;40.63
76201;BME280;64981;52.930;9.266;2023-06-22T11:00:32;101466.28;;;28.10;40.42
76201;BME280;64981;52.930;9.266;2023-06-22T11:02:57;101464.06;;;28.07;40.26
76201;BME280;64981;52.930;9.266;2023-06-22T11:05:24;101459.84;;;27.58;41.52
76201;BME280;64981;52.930;9.266;2023-06-22T11:07:49;101466.75;;;27.70;41.05
76201;BME280;64981;52.930;9.266;2023-06-22T11:10:16;101464.94;;;27.49;41.63
76201;BME280;64981;52.930;9.266;2023-06-22T11:12:41;101462.31;;;27.59;41.62
76201;BME280;64981;52.930;9.266;2023-06-22T11:15:08;101458.28;;;27.67;41.14
76201;BME280;64981;52.930;9.266;2023-06-22T11:17:35;101455.69;;;27.77;41.43
76201;BME280;64981;52.930;9.266;2023-06-22T11:20:01;101445.44;;;27.84;41.87
76201;BME280;64981;52.930;9.266;2023-06-22T11:22:27;101448.06;;;27.74;42.20
76201;BME280;64981;52.930;9.266;2023-06-22T11:24:52;101440.03;;;27.84;42.07
76201;BME280;64981;52.930;9.266;2023-06-22T11:27:18;101443.91;;;27.98;41.98
76201;BME280;64981;52.930;9.266;2023-06-22T11:29:44;101439.81;;;27.96;42.54
76201;BME280;64981;52.930;9.266;2023-06-22T11:32:10;101440.38;;;27.98;42.29
76201;BME280;64981;52.930;9.266;2023-06-22T11:34:35;101438.47;;;27.93;41.88
76201;BME280;64981;52.930;9.266;2023-06-22T11:37:01;101434.78;;;28.09;41.14
76201;BME280;64981;52.930;9.266;2023-06-22T11:39:26;101426.50;;;28.31;41.19
76201;BME280;64981;52.930;9.266;2023-06-22T11:41:52;101425.38;;;28.27;42.03
76201;BME280;64981;52.930;9.266;2023-06-22T11:44:18;101421.50;;;28.18;41.86
76201;BME280;64981;52.930;9.266;2023-06-22T11:46:43;101413.69;;;28.26;41.69
76201;BME280;64981;52.930;9.266;2023-06-22T11:49:09;101418.69;;;28.45;41.88
76201;BME280;64981;52.930;9.266;2023-06-22T11:51:34;101402.38;;;28.40;41.57
76201;BME280;64981;52.930;9.266;2023-06-22T11:54:00;101397.47;;;28.42;41.63
76201;BME280;64981;52.930;9.266;2023-06-22T11:56:26;101399.72;;;28.50;40.96
76201;BME280;64981;52.930;9.266;2023-06-22T11:58:53;101399.94;;;28.38;41.75
76201;BME280;64981;52.930;9.266;2023-06-22T12:01:19;101400.25;;;28.47;42.11
76201;BME280;64981;52.930;9.266;2023-06-22T12:03:45;101401.31;;;28.46;41.92
76201;BME280;64981;52.930;9.266;2023-06-22T12:06:10;101397.78;;;28.45;41.53
76201;BME280;64981;52.930;9.266;2023-06-22T12:08:37;101406.66;;;28.31;41.78
76201;BME280;64981;52.930;9.266;2023-06-22T12:11:03;101397.91;;;28.23;41.87
76201;BME280;64981;52.930;9.266;2023-06-22T12:13:28;101397.09;;;28.23;42.04
76201;BME280;64981;52.930;9.266;2023-06-22T12:15:54;101398.63;;;28.04;42.63
76201;BME280;64981;52.930;9.266;2023-06-22T12:18:19;101397.19;;;27.96;42.73
76201;BME280;64981;52.930;9.266;2023-06-22T12:20:47;101394.69;;;27.85;42.94
76201;BME280;64981;52.930;9.266;2023-06-22T12:23:13;101389.25;;;27.85;42.83
76201;BME280;64981;52.930;9.266;2023-06-22T12:25:39;101382.03;;;27.68;43.22
76201;BME280;64981;52.930;9.266;2023-06-22T12:28:04;101386.69;;;27.73;43.49
76201;BME280;64981;52.930;9.266;2023-06-22T12:30:30;101375.28;;;27.71;43.61
76201;BME280;64981;52.930;9.266;2023-06-22T12:32:56;101372.31;;;27.72;43.82
76201;BME280;64981;52.930;9.266;2023-06-22T12:35:21;101370.06;;;27.64;44.04
76201;BME280;64981;52.930;9.266;2023-06-22T12:37:47;101373.63;;;27.70;44.08
76201;BME280;64981;52.930;9.266;2023-06-22T12:40:13;101366.81;;;27.67;44.38
76201;BME280;64981;52.930;9.266;2023-06-22T12:42:40;101368.41;;;27.63;44.02
76201;BME280;64981;52.930;9.266;2023-06-22T12:45:06;101362.03;;;27.48;44.62
76201;BME280;64981;52.930;9.266;2023-06-22T12:47:31;101357.28;;;27.60;44.64